sensor_id;sensor_type;location;lat;lon;timestamp;temperature;humidity
4201;DHT22;2114;50.398;8.814;2022-10-23T00:02:16;12.30;99.90
4201;DHT22;2114;50.398;8.814;2022-10-23T00:07:17;12.20;99.90
4201;DHT22;2114;50.398;8.814;2022-10-23T00:12:18;12.10;99.90
4201;DHT22;2114;50.398;8.814;2022-10-23T00:17:18;12.10;99.90
4201;DHT22;2114;50.398;8.814;2022-10-23T00:22:19;12.00;99.90
4201;DHT22;2114;50.398;8.814;2022-10-23T00:27:20;12.00;99.90
4201;DHT22;2114;50.398;8.814;2022-10-23T00:32:20;12.00;99.90
4201;DHT22;2114;50.398;8.814;2022-10-23T00:37:21;11.90;99.90
4201;DHT22;2114;50.398;8.814;2022-10-23T00:42:21;11.90;99.90
4201;DHT22;2114;50.398;8.814;2022-10-23T00:47:22;11.80;99.90
4201;DHT22;2114;50.398;8.814;2022-10-23T00:52:23;11.80;99.90
4201;DHT22;2114;50.398;8.814;2022-10-23T00:57:23;11.80;99.90
4201;DHT22;2114;50.398;8.814;2022-10-23T01:02:24;11.70;99.90
4201;DHT22;2114;50.398;8.814;2022-10-23T01:07:34;11.70;99.90
4201;DHT22;2114;50.398;8.814;2022-10-23T01:12:54;11.70;99.90
4201;DHT22;2114;50.398;8.814;2022-10-23T01:18:14;11.60;99.90
4201;DHT22;2114;50.398;8.814;2022-10-23T01:23:43;11.60;99.90
4201;DHT22;2114;50.398;8.814;2022-10-23T01:28:54;11.60;99.90
4201;DHT22;2114;50.398;8.814;2022-10-23T01:34:03;11.60;99.90
4201;DHT22;2114;50.398;8.814;2022-10-23T01:39:13;11.50;99.90
4201;DHT22;2114;50.398;8.814;2022-10-23T01:44:28;11.50;99.90
4201;DHT22;2114;50.398;8.814;2022-10-23T01:49:31;11.50;99.90
4201;DHT22;2114;50.398;8.814;2022-10-23T01:54:35;11.50;99.90
4201;DHT22;2114;50.398;8.814;2022-10-23T01:59:40;11.50;99.90
4201;DHT22;2114;50.398;8.814;2022-10-23T02:05:06;11.50;99.90
4201;DHT22;2114;50.398;8.814;2022-10-23T02:10:08;11.50;99.90
4201;DHT22;2114;50.398;8.814;2022-10-23T02:15:14;11.60;99.90
4201;DHT22;2114;50.398;8.814;2022-10-23T02:20:27;11.50;99.90
4201;DHT22;2114;50.398;8.814;2022-10-23T02:25:32;11.40;99.90
4201;DHT22;2114;50.398;8.814;2022-10-23T02:30:36;11.40;99.90
4201;DHT22;2114;50.398;8.814;2022-10-23T02:35:37;11.40;99.90
4201;DHT22;2114;50.398;8.814;2022-10-23T02:40:41;11.40;99.90
4201;DHT22;2114;50.398;8.814;2022-10-23T02:45:53;11.40;99.90
4201;DHT22;2114;50.398;8.814;2022-10-23T02:51:10;11.40;99.90
4201;DHT22;2114;50.398;8.814;2022-10-23T02:56:25;11.40;99.90
4201;DHT22;2114;50.398;8.814;2022-10-23T03:01:34;11.40;99.90
4201;DHT22;2114;50.398;8.814;2022-10-23T03:06:38;11.30;99.90
4201;DHT22;2114;50.398;8.814;2022-10-23T03:11:38;11.30;99.90
4201;DHT22;2114;50.398;8.814;2022-10-23T03:16:39;11.30;99.90
4201;DHT22;2114;50.398;8.814;2022-10-23T03:21:39;11.30;99.90
4201;DHT22;2114;50.398;8.814;2022-10-23T03:26:40;11.30;99.90
4201;DHT22;2114;50.398;8.814;2022-10-23T03:31:40;11.30;99.90
4201;DHT22;2114;50.398;8.814;2022-10-23T03:36:41;11.30;99.90
4201;DHT22;2114;50.398;8.814;2022-10-23T03:41:42;11.30;99.90
4201;DHT22;2114;50.398;8.814;2022-10-23T03:46:42;11.30;99.90
4201;DHT22;2114;50.398;8.814;2022-10-23T03:51:43;11.30;99.90
4201;DHT22;2114;50.398;8.814;2022-10-23T03:56:46;11.30;99.90
4201;DHT22;2114;50.398;8.814;2022-10-23T04:01:47;11.30;99.90
4201;DHT22;2114;50.398;8.814;2022-10-23T04:06:48;11.30;99.90
4201;DHT22;2114;50.398;8.814;2022-10-23T04:11:48;11.40;99.90
4201;DHT22;2114;50.398;8.814;2022-10-23T04:16:49;11.30;99.90
4201;DHT22;2114;50.398;8.814;2022-10-23T04:21:49;11.30;99.90
4201;DHT22;2114;50.398;8.814;2022-10-23T04:26:50;11.30;99.90
4201;DHT22;2114;50.398;8.814;2022-10-23T04:31:51;11.20;99.90
4201;DHT22;2114;50.398;8.814;2022-10-23T04:36:51;11.20;99.90
4201;DHT22;2114;50.398;8.814;2022-10-23T04:41:52;11.10;99.90
4201;DHT22;2114;50.398;8.814;2022-10-23T04:46:52;11.10;99.90
4201;DHT22;2114;50.398;8.814;2022-10-23T04:51:53;11.10;99.90
4201;DHT22;2114;50.398;8.814;2022-10-23T04:56:53;11.10;99.90
4201;DHT22;2114;50.398;8.814;2022-10-23T05:01:54;11.10;99.90
4201;DHT22;2114;50.398;8.814;2022-10-23T05:06:54;11.10;99.90
4201;DHT22;2114;50.398;8.814;2022-10-23T05:11:55;11.00;99.90
4201;DHT22;2114;50.398;8.814;2022-10-23T05:17:16;11.00;99.90
4201;DHT22;2114;50.398;8.814;2022-10-23T05:22:20;11.00;99.90
4201;DHT22;2114;50.398;8.814;2022-10-23T05:27:21;11.00;99.90
4201;DHT22;2114;50.398;8.814;2022-10-23T05:32:23;10.90;99.90
4201;DHT22;2114;50.398;8.814;2022-10-23T05:37:25;10.90;99.90
4201;DHT22;2114;50.398;8.814;2022-10-23T05:42:25;10.70;99.90
4201;DHT22;2114;50.398;8.814;2022-10-23T05:47:26;10.70;99.90
4201;DHT22;2114;50.398;8.814;2022-10-23T05:57:38;10.80;99.90
4201;DHT22;2114;50.398;8.814;2022-10-23T06:02:38;10.70;99.90
4201;DHT22;2114;50.398;8.814;2022-10-23T06:07:39;10.70;99.90
4201;DHT22;2114;50.398;8.814;2022-10-23T06:12:39;10.70;99.90
4201;DHT22;2114;50.398;8.814;2022-10-23T06:17:40;10.70;99.90
4201;DHT22;2114;50.398;8.814;2022-10-23T06:22:40;10.80;99.90
4201;DHT22;2114;50.398;8.814;2022-10-23T06:27:41;10.80;99.90
4201;DHT22;2114;50.398;8.814;2022-10-23T06:32:41;10.80;99.90
4201;DHT22;2114;50.398;8.814;2022-10-23T06:37:42;10.80;99.90
4201;DHT22;2114;50.398;8.814;2022-10-23T06:42:42;10.80;99.90
4201;DHT22;2114;50.398;8.814;2022-10-23T06:47:43;10.80;99.90
4201;DHT22;2114;50.398;8.814;2022-10-23T06:52:44;10.80;99.90
4201;DHT22;2114;50.398;8.814;2022-10-23T06:57:44;10.80;99.90
4201;DHT22;2114;50.398;8.814;2022-10-23T07:02:45;10.90;99.90
4201;DHT22;2114;50.398;8.814;2022-10-23T07:07:45;10.90;99.90
4201;DHT22;2114;50.398;8.814;2022-10-23T07:12:46;10.90;99.90
4201;DHT22;2114;50.398;8.814;2022-10-23T07:17:48;11.00;99.90
4201;DHT22;2114;50.398;8.814;2022-10-23T07:22:53;11.10;99.90
4201;DHT22;2114;50.398;8.814;2022-10-23T07:27:54;11.10;99.90
4201;DHT22;2114;50.398;8.814;2022-10-23T07:32:55;11.20;99.90
4201;DHT22;2114;50.398;8.814;2022-10-23T07:37:58;11.20;99.90
4201;DHT22;2114;50.398;8.814;2022-10-23T07:42:59;11.30;99.90
4201;DHT22;2114;50.398;8.814;2022-10-23T07:47:59;11.40;99.90
4201;DHT22;2114;50.398;8.814;2022-10-23T07:53:00;11.50;99.90
4201;DHT22;2114;50.398;8.814;2022-10-23T07:58:00;11.60;99.90
4201;DHT22;2114;50.398;8.814;2022-10-23T08:03:01;11.70;99.90
4201;DHT22;2114;50.398;8.814;2022-10-23T08:08:02;11.80;99.90
4201;DHT22;2114;50.398;8.814;2022-10-23T08:13:02;11.90;99.90
4201;DHT22;2114;50.398;8.814;2022-10-23T08:18:03;11.90;99.90
4201;DHT22;2114;50.398;8.814;2022-10-23T08:23:03;12.00;99.90
4201;DHT22;2114;50.398;8.814;2022-10-23T08:28:05;12.10;99.90
4201;DHT22;2114;50.398;8.814;2022-10-23T08:33:06;12.20;99.90
4201;DHT22;2114;50.398;8.814;2022-10-23T08:38:07;12.30;99.90
4201;DHT22;2114;50.398;8.814;2022-10-23T08:48:29;12.60;99.90
4201;DHT22;2114;50.398;8.814;2022-10-23T08:53:41;12.80;99.90
4201;DHT22;2114;50.398;8.814;2022-10-23T08:58:54;12.90;99.90
4201;DHT22;2114;50.398;8.814;2022-10-23T09:03:57;13.20;99.90
4201;DHT22;2114;50.398;8.814;2022-10-23T09:09:16;13.50;99.90
4201;DHT22;2114;50.398;8.814;2022-10-23T09:19:58;13.70;99.90
4201;DHT22;2114;50.398;8.814;2022-10-23T09:24:59;14.00;99.90
4201;DHT22;2114;50.398;8.814;2022-10-23T09:30:00;14.20;99.90
4201;DHT22;2114;50.398;8.814;2022-10-23T09:35:00;14.30;99.90
4201;DHT22;2114;50.398;8.814;2022-10-23T09:45:22;14.40;99.90
4201;DHT22;2114;50.398;8.814;2022-10-23T09:50:23;14.30;99.90
4201;DHT22;2114;50.398;8.814;2022-10-23T09:55:24;14.50;99.90
4201;DHT22;2114;50.398;8.814;2022-10-23T10:00:26;14.60;99.90
4201;DHT22;2114;50.398;8.814;2022-10-23T10:05:32;14.60;99.90
4201;DHT22;2114;50.398;8.814;2022-10-23T10:10:41;14.70;99.90
4201;DHT22;2114;50.398;8.814;2022-10-23T10:15:49;14.90;99.90
4201;DHT22;2114;50.398;8.814;2022-10-23T10:31:51;15.20;99.90
4201;DHT22;2114;50.398;8.814;2022-10-23T10:48:07;15.50;99.90
4201;DHT22;2114;50.398;8.814;2022-10-23T11:03:52;15.80;99.90
4201;DHT22;2114;50.398;8.814;2022-10-23T11:08:53;15.90;99.90
4201;DHT22;2114;50.398;8.814;2022-10-23T11:13:54;16.00;99.90
4201;DHT22;2114;50.398;8.814;2022-10-23T11:34:44;16.60;99.90
4201;DHT22;2114;50.398;8.814;2022-10-23T11:51:01;16.40;99.90
4201;DHT22;2114;50.398;8.814;2022-10-23T11:56:00;16.30;99.90
4201;DHT22;2114;50.398;8.814;2022-10-23T12:06:27;16.40;99.90
4201;DHT22;2114;50.398;8.814;2022-10-23T12:11:43;16.50;99.90
4201;DHT22;2114;50.398;8.814;2022-10-23T12:16:46;16.50;99.90
4201;DHT22;2114;50.398;8.814;2022-10-23T12:21:49;16.40;99.90
4201;DHT22;2114;50.398;8.814;2022-10-23T12:27:15;16.50;99.90
4201;DHT22;2114;50.398;8.814;2022-10-23T12:38:12;16.80;99.90
4201;DHT22;2114;50.398;8.814;2022-10-23T12:43:24;17.00;99.90
4201;DHT22;2114;50.398;8.814;2022-10-23T12:48:25;17.10;99.90
4201;DHT22;2114;50.398;8.814;2022-10-23T12:53:26;17.20;99.90
4201;DHT22;2114;50.398;8.814;2022-10-23T12:58:31;17.20;99.90
4201;DHT22;2114;50.398;8.814;2022-10-23T13:03:33;17.30;99.90
4201;DHT22;2114;50.398;8.814;2022-10-23T13:08:43;17.60;99.90
4201;DHT22;2114;50.398;8.814;2022-10-23T13:13:45;17.70;99.90
4201;DHT22;2114;50.398;8.814;2022-10-23T13:18:47;17.70;99.90
4201;DHT22;2114;50.398;8.814;2022-10-23T13:23:49;17.50;99.90
4201;DHT22;2114;50.398;8.814;2022-10-23T13:28:50;17.40;99.90
4201;DHT22;2114;50.398;8.814;2022-10-23T13:44:16;17.20;99.90
4201;DHT22;2114;50.398;8.814;2022-10-23T13:49:17;17.20;99.90
4201;DHT22;2114;50.398;8.814;2022-10-23T13:54:21;17.30;99.90
4201;DHT22;2114;50.398;8.814;2022-10-23T13:59:22;17.30;99.90
4201;DHT22;2114;50.398;8.814;2022-10-23T14:04:23;17.30;99.90
4201;DHT22;2114;50.398;8.814;2022-10-23T14:09:23;17.20;99.90
4201;DHT22;2114;50.398;8.814;2022-10-23T14:14:24;17.20;99.90
4201;DHT22;2114;50.398;8.814;2022-10-23T14:19:25;17.20;99.90
4201;DHT22;2114;50.398;8.814;2022-10-23T14:24:25;17.20;99.90
4201;DHT22;2114;50.398;8.814;2022-10-23T14:29:26;17.10;99.90
4201;DHT22;2114;50.398;8.814;2022-10-23T14:34:26;17.10;99.90
4201;DHT22;2114;50.398;8.814;2022-10-23T14:39:27;17.10;99.90
4201;DHT22;2114;50.398;8.814;2022-10-23T14:44:28;17.10;99.90
4201;DHT22;2114;50.398;8.814;2022-10-23T14:49:29;17.10;99.90
4201;DHT22;2114;50.398;8.814;2022-10-23T14:54:29;17.20;99.90
4201;DHT22;2114;50.398;8.814;2022-10-23T14:59:32;17.10;99.90
4201;DHT22;2114;50.398;8.814;2022-10-23T15:04:32;17.10;99.90
4201;DHT22;2114;50.398;8.814;2022-10-23T15:09:33;17.00;99.90
4201;DHT22;2114;50.398;8.814;2022-10-23T15:14:35;17.00;99.90
4201;DHT22;2114;50.398;8.814;2022-10-23T15:19:36;16.80;99.90
4201;DHT22;2114;50.398;8.814;2022-10-23T15:24:37;16.80;99.90
4201;DHT22;2114;50.398;8.814;2022-10-23T15:29:37;16.70;99.90
4201;DHT22;2114;50.398;8.814;2022-10-23T15:34:38;16.60;99.90
4201;DHT22;2114;50.398;8.814;2022-10-23T15:39:42;16.50;99.90
4201;DHT22;2114;50.398;8.814;2022-10-23T15:44:42;16.40;99.90
4201;DHT22;2114;50.398;8.814;2022-10-23T15:49:43;16.30;99.90
4201;DHT22;2114;50.398;8.814;2022-10-23T15:54:44;16.30;99.90
4201;DHT22;2114;50.398;8.814;2022-10-23T15:59:44;16.10;99.90
4201;DHT22;2114;50.398;8.814;2022-10-23T16:04:45;16.00;99.90
4201;DHT22;2114;50.398;8.814;2022-10-23T16:09:45;16.00;99.90
4201;DHT22;2114;50.398;8.814;2022-10-23T16:14:46;15.80;99.90
4201;DHT22;2114;50.398;8.814;2022-10-23T16:19:47;15.70;99.90
4201;DHT22;2114;50.398;8.814;2022-10-23T16:24:47;15.70;99.90
4201;DHT22;2114;50.398;8.814;2022-10-23T16:29:48;15.60;99.90
4201;DHT22;2114;50.398;8.814;2022-10-23T16:34:48;15.60;99.90
4201;DHT22;2114;50.398;8.814;2022-10-23T16:39:49;15.50;99.90
4201;DHT22;2114;50.398;8.814;2022-10-23T16:44:50;15.40;99.90
4201;DHT22;2114;50.398;8.814;2022-10-23T16:49:51;15.40;99.90
4201;DHT22;2114;50.398;8.814;2022-10-23T16:54:51;15.30;99.90
4201;DHT22;2114;50.398;8.814;2022-10-23T16:59:52;15.30;99.90
4201;DHT22;2114;50.398;8.814;2022-10-23T17:04:53;15.20;99.90
4201;DHT22;2114;50.398;8.814;2022-10-23T17:09:54;15.20;99.90
4201;DHT22;2114;50.398;8.814;2022-10-23T17:14:54;15.10;99.90
4201;DHT22;2114;50.398;8.814;2022-10-23T17:19:55;15.10;99.90
4201;DHT22;2114;50.398;8.814;2022-10-23T17:24:55;15.00;99.90
4201;DHT22;2114;50.398;8.814;2022-10-23T17:29:57;15.00;99.90
4201;DHT22;2114;50.398;8.814;2022-10-23T17:34:58;15.00;99.90
4201;DHT22;2114;50.398;8.814;2022-10-23T17:39:58;14.90;99.90
4201;DHT22;2114;50.398;8.814;2022-10-23T17:45:01;14.90;99.90
4201;DHT22;2114;50.398;8.814;2022-10-23T17:50:02;14.90;99.90
4201;DHT22;2114;50.398;8.814;2022-10-23T17:55:03;14.80;99.90
4201;DHT22;2114;50.398;8.814;2022-10-23T18:00:04;14.80;99.90
4201;DHT22;2114;50.398;8.814;2022-10-23T18:05:05;14.80;99.90
4201;DHT22;2114;50.398;8.814;2022-10-23T18:10:06;14.80;99.90
4201;DHT22;2114;50.398;8.814;2022-10-23T18:15:07;14.80;99.90
4201;DHT22;2114;50.398;8.814;2022-10-23T18:20:08;14.90;99.90
4201;DHT22;2114;50.398;8.814;2022-10-23T18:25:11;14.90;99.90
4201;DHT22;2114;50.398;8.814;2022-10-23T18:30:11;14.90;99.90
4201;DHT22;2114;50.398;8.814;2022-10-23T18:35:12;14.90;99.90
4201;DHT22;2114;50.398;8.814;2022-10-23T18:40:13;14.90;99.90
4201;DHT22;2114;50.398;8.814;2022-10-23T18:45:14;14.90;99.90
4201;DHT22;2114;50.398;8.814;2022-10-23T18:50:16;14.90;99.90
4201;DHT22;2114;50.398;8.814;2022-10-23T18:55:17;14.90;99.90
4201;DHT22;2114;50.398;8.814;2022-10-23T19:00:20;14.80;99.90
4201;DHT22;2114;50.398;8.814;2022-10-23T19:05:20;14.90;99.90
4201;DHT22;2114;50.398;8.814;2022-10-23T19:10:25;14.90;99.90
4201;DHT22;2114;50.398;8.814;2022-10-23T19:15:28;14.80;99.90
4201;DHT22;2114;50.398;8.814;2022-10-23T19:20:29;14.80;99.90
4201;DHT22;2114;50.398;8.814;2022-10-23T19:25:31;14.80;99.90
4201;DHT22;2114;50.398;8.814;2022-10-23T19:30:33;14.80;99.90
4201;DHT22;2114;50.398;8.814;2022-10-23T19:35:36;14.80;99.90
4201;DHT22;2114;50.398;8.814;2022-10-23T19:40:37;14.80;99.90
4201;DHT22;2114;50.398;8.814;2022-10-23T19:45:38;14.70;99.90
4201;DHT22;2114;50.398;8.814;2022-10-23T19:50:41;14.70;99.90
4201;DHT22;2114;50.398;8.814;2022-10-23T19:55:42;14.60;99.90
4201;DHT22;2114;50.398;8.814;2022-10-23T20:00:45;14.60;99.90
4201;DHT22;2114;50.398;8.814;2022-10-23T20:05:49;14.50;99.90
4201;DHT22;2114;50.398;8.814;2022-10-23T20:10:52;14.50;99.90
4201;DHT22;2114;50.398;8.814;2022-10-23T20:15:53;14.50;99.90
4201;DHT22;2114;50.398;8.814;2022-10-23T20:21:00;14.60;99.90
4201;DHT22;2114;50.398;8.814;2022-10-23T20:26:09;14.60;99.90
4201;DHT22;2114;50.398;8.814;2022-10-23T20:31:12;14.60;99.90
4201;DHT22;2114;50.398;8.814;2022-10-23T20:36:29;14.60;99.90
4201;DHT22;2114;50.398;8.814;2022-10-23T20:41:30;14.60;99.90
4201;DHT22;2114;50.398;8.814;2022-10-23T20:46:32;14.60;99.90
4201;DHT22;2114;50.398;8.814;2022-10-23T20:51:38;14.60;99.90
4201;DHT22;2114;50.398;8.814;2022-10-23T20:56:44;14.60;99.90
4201;DHT22;2114;50.398;8.814;2022-10-23T21:01:49;14.50;99.90
4201;DHT22;2114;50.398;8.814;2022-10-23T21:06:53;14.50;99.90
4201;DHT22;2114;50.398;8.814;2022-10-23T21:11:54;14.40;99.90
4201;DHT22;2114;50.398;8.814;2022-10-23T21:16:54;14.30;99.90
4201;DHT22;2114;50.398;8.814;2022-10-23T21:21:55;14.40;99.90
4201;DHT22;2114;50.398;8.814;2022-10-23T21:26:55;14.40;99.90
4201;DHT22;2114;50.398;8.814;2022-10-23T21:31:58;14.40;99.90
4201;DHT22;2114;50.398;8.814;2022-10-23T21:37:00;14.40;99.90
4201;DHT22;2114;50.398;8.814;2022-10-23T21:42:02;14.30;99.90
4201;DHT22;2114;50.398;8.814;2022-10-23T21:47:02;14.30;99.90
4201;DHT22;2114;50.398;8.814;2022-10-23T21:52:03;14.30;99.90
4201;DHT22;2114;50.398;8.814;2022-10-23T21:57:04;14.20;99.90
4201;DHT22;2114;50.398;8.814;2022-10-23T22:02:04;14.20;99.90
4201;DHT22;2114;50.398;8.814;2022-10-23T22:07:06;14.20;99.90
4201;DHT22;2114;50.398;8.814;2022-10-23T22:12:14;14.20;99.90
4201;DHT22;2114;50.398;8.814;2022-10-23T22:17:14;14.20;99.90
4201;DHT22;2114;50.398;8.814;2022-10-23T22:22:15;14.10;99.90
4201;DHT22;2114;50.398;8.814;2022-10-23T22:27:15;14.10;99.90
4201;DHT22;2114;50.398;8.814;2022-10-23T22:32:16;14.10;99.90
4201;DHT22;2114;50.398;8.814;2022-10-23T22:37:17;14.10;99.90
4201;DHT22;2114;50.398;8.814;2022-10-23T22:42:18;14.00;99.90
4201;DHT22;2114;50.398;8.814;2022-10-23T22:47:19;14.00;99.90
4201;DHT22;2114;50.398;8.814;2022-10-23T22:52:19;14.00;99.90
4201;DHT22;2114;50.398;8.814;2022-10-23T22:57:20;13.90;99.90
4201;DHT22;2114;50.398;8.814;2022-10-23T23:02:20;13.90;99.90
4201;DHT22;2114;50.398;8.814;2022-10-23T23:07:21;13.80;99.90
4201;DHT22;2114;50.398;8.814;2022-10-23T23:12:21;13.80;99.90
4201;DHT22;2114;50.398;8.814;2022-10-23T23:17:22;13.80;99.90
4201;DHT22;2114;50.398;8.814;2022-10-23T23:22:22;13.70;99.90
4201;DHT22;2114;50.398;8.814;2022-10-23T23:27:23;13.70;99.90
4201;DHT22;2114;50.398;8.814;2022-10-23T23:32:23;13.60;99.90
4201;DHT22;2114;50.398;8.814;2022-10-23T23:37:24;13.60;99.90
4201;DHT22;2114;50.398;8.814;2022-10-23T23:42:25;13.50;99.90
4201;DHT22;2114;50.398;8.814;2022-10-23T23:47:25;13.50;99.90
4201;DHT22;2114;50.398;8.814;2022-10-23T23:52:26;13.40;99.90
4201;DHT22;2114;50.398;8.814;2022-10-23T23:57:27;13.40;99.90
